Tohshi — 3EJO5 — position and weather

sailwx.info

Track history (hours):
 
Tides and Currents Weather Stations Pressure Air Temp Water Temp Dewpoint Dewpoint Depression Visibility Wind Speed Wind Dir Waves Ship Positions

Tohshi

Last reported at 2017-Jan-18 11:33 UTC. Time now 2017-Jan-18 12:09 UTC.
Position N 35°31' E 139°56'.

Length 333 m; beam 60 m.

Type: Tanker. MMSI: 372582000.

Date/timePositionNaut miles runAvg speedWind from/ knotsBaromVisibWave heightAir tempDewpointWater temp
2017-Jan-18 11:33N 35°31' E 139°56'0 0.0
2017-Jan-18 10:33N 35°31' E 139°56'0 0.0
2017-Jan-18 09:33N 35°31' E 139°56'0 0.0
2017-Jan-18 08:30N 35°31' E 139°56'0 0.0
2017-Jan-18 07:33N 35°31' E 139°56'0 0.0
2017-Jan-18 06:33N 35°31' E 139°56'0 0.0
2017-Jan-18 05:33N 35°31' E 139°56'0 0.0
2017-Jan-18 04:30N 35°31' E 139°56'0 0.0
2017-Jan-18 03:33N 35°31' E 139°56'0 0.0
2017-Jan-18 02:33N 35°31' E 139°56'1 0.9
2017-Jan-18 01:33N 35°30' E 139°56'6 5.6
2017-Jan-18 00:33N 35°27' E 139°50'10 9.5
2017-Jan-17 23:33N 35°18' E 139°44'9 9.2
2017-Jan-17 22:33N 35°09' E 139°47'6 5.9
2017-Jan-17 21:33N 35°04' E 139°44'8 7.5
2017-Jan-17 20:29N 34°56' E 139°41'  
Track history (hours):
 
Tides and Currents Weather Stations Pressure Air Temp Water Temp Dewpoint Dewpoint Depression Visibility Wind Speed Wind Dir Waves Ship Positions

Tohshi

Last reported at 2017-Jan-18 11:33 UTC. Time now 2017-Jan-18 12:09 UTC.
Position N 35°31' E 139°56'.

Length 333 m; beam 60 m.

Type: Tanker. MMSI: 372582000.

Date/timePositionNaut miles runAvg speedWind from/ knotsBaromVisibWave heightAir tempDewpointWater temp
2017-Jan-18 11:33N 35°31' E 139°56'0 0.0
2017-Jan-18 10:33N 35°31' E 139°56'0 0.0
2017-Jan-18 09:33N 35°31' E 139°56'0 0.0
2017-Jan-18 08:30N 35°31' E 139°56'0 0.0
2017-Jan-18 07:33N 35°31' E 139°56'0 0.0
2017-Jan-18 06:33N 35°31' E 139°56'0 0.0
2017-Jan-18 05:33N 35°31' E 139°56'0 0.0
2017-Jan-18 04:30N 35°31' E 139°56'0 0.0
2017-Jan-18 03:33N 35°31' E 139°56'0 0.0
2017-Jan-18 02:33N 35°31' E 139°56'1 0.9
2017-Jan-18 01:33N 35°30' E 139°56'6 5.6
2017-Jan-18 00:33N 35°27' E 139°50'10 9.5
2017-Jan-17 23:33N 35°18' E 139°44'9 9.2
2017-Jan-17 22:33N 35°09' E 139°47'6 5.9
2017-Jan-17 21:33N 35°04' E 139°44'8 7.5
2017-Jan-17 20:29N 34°56' E 139°41'  

Dump ship's entire track history